createdAt,value
2017-09-09T00:00:55.240Z,0
2017-09-09T00:01:55.959Z,0
2017-09-09T00:02:56.677Z,0
2017-09-09T00:03:57.415Z,0
2017-09-09T00:04:58.159Z,0
2017-09-09T00:05:58.874Z,0
2017-09-09T00:06:59.594Z,0
2017-09-09T00:08:00.312Z,0
2017-09-09T00:09:01.051Z,0
2017-09-09T00:10:01.770Z,0
2017-09-09T00:11:02.510Z,0
2017-09-09T00:12:03.229Z,0
2017-09-09T00:13:03.947Z,0
2017-09-09T00:14:04.684Z,0
2017-09-09T00:15:05.404Z,0
2017-09-09T00:16:06.119Z,0
2017-09-09T00:17:06.837Z,0
2017-09-09T00:18:07.556Z,0
2017-09-09T00:19:08.273Z,0
2017-09-09T00:20:08.991Z,0
2017-09-09T00:21:09.708Z,0
2017-09-09T00:22:10.424Z,0
2017-09-09T00:23:11.161Z,0
2017-09-09T00:24:11.894Z,0
2017-09-09T00:25:12.615Z,0
2017-09-09T00:26:13.331Z,0
2017-09-09T00:27:14.047Z,0
2017-09-09T00:28:14.765Z,0
2017-09-09T00:30:16.110Z,0
2017-09-09T00:31:16.828Z,0
2017-09-09T00:32:17.573Z,0
2017-09-09T00:33:18.289Z,0
2017-09-09T00:34:19.009Z,0
2017-09-09T00:35:19.727Z,0
2017-09-09T00:36:20.465Z,0
2017-09-09T00:37:21.186Z,0
2017-09-09T00:38:21.925Z,0
2017-09-09T00:39:22.666Z,0
2017-09-09T00:40:23.385Z,0
2017-09-09T00:41:24.104Z,0
2017-09-09T00:42:24.825Z,0
2017-09-09T00:43:25.542Z,0
2017-09-09T00:44:26.263Z,0
2017-09-09T00:45:26.981Z,0
2017-09-09T00:46:27.722Z,0
2017-09-09T00:47:28.441Z,0
2017-09-09T00:48:29.160Z,0
2017-09-09T00:49:29.905Z,0
2017-09-09T00:50:30.621Z,0
2017-09-09T00:51:31.342Z,0
2017-09-09T00:52:32.063Z,0
2017-09-09T00:53:32.783Z,0
2017-09-09T00:54:33.505Z,0
2017-09-09T00:55:34.222Z,0
2017-09-09T00:56:34.942Z,0
2017-09-09T00:57:35.664Z,0
2017-09-09T00:58:36.384Z,0
2017-09-09T00:59:37.126Z,0
2017-09-09T01:00:37.872Z,0
2017-09-09T01:01:38.589Z,0
2017-09-09T01:02:39.331Z,0
2017-09-09T01:03:40.053Z,0
2017-09-09T01:04:40.772Z,0
2017-09-09T01:05:41.515Z,0
2017-09-09T01:06:42.238Z,0
2017-09-09T01:07:42.956Z,0
2017-09-09T01:08:43.677Z,0
2017-09-09T01:09:44.420Z,0
2017-09-09T01:10:45.140Z,0
2017-09-09T01:11:45.863Z,0
2017-09-09T01:12:46.581Z,0
2017-09-09T01:13:47.325Z,0
2017-09-09T01:14:48.047Z,0
2017-09-09T01:15:48.765Z,0
2017-09-09T01:16:49.484Z,0
2017-09-09T01:17:50.207Z,0
2017-09-09T01:18:50.924Z,0
2017-09-09T01:19:51.642Z,0
2017-09-09T01:20:52.374Z,0
2017-09-09T01:21:53.080Z,0
2017-09-09T01:22:53.804Z,0
2017-09-09T01:23:54.527Z,0
2017-09-09T01:24:55.269Z,0
2017-09-09T01:25:55.986Z,0
2017-09-09T01:26:56.731Z,0
2017-09-09T01:27:57.451Z,0
2017-09-09T01:28:58.169Z,0
2017-09-09T01:29:58.913Z,0
2017-09-09T01:30:59.633Z,0
2017-09-09T01:32:00.375Z,0
2017-09-09T01:33:01.098Z,0
2017-09-09T01:34:01.817Z,0
2017-09-09T01:35:02.541Z,0
2017-09-09T01:36:03.260Z,0
2017-09-09T01:37:04.003Z,0
2017-09-09T01:38:04.725Z,0
2017-09-09T01:39:05.472Z,0
2017-09-09T01:40:06.191Z,0
2017-09-09T01:41:06.913Z,0
2017-09-09T01:42:07.635Z,0
2017-09-09T01:43:08.357Z,0
2017-09-09T01:44:09.076Z,0
2017-09-09T01:45:09.798Z,0
2017-09-09T01:46:10.518Z,0
2017-09-09T01:47:11.241Z,0
2017-09-09T01:48:11.960Z,0
2017-09-09T01:49:12.713Z,0
2017-09-09T01:50:13.428Z,0
2017-09-09T01:51:14.146Z,0
2017-09-09T01:52:14.866Z,0
2017-09-09T01:53:15.586Z,0
2017-09-09T01:54:16.314Z,0
2017-09-09T01:55:17.026Z,0
2017-09-09T01:56:17.770Z,0
2017-09-09T01:57:18.495Z,0
2017-09-09T01:58:19.237Z,0
2017-09-09T01:59:19.958Z,0
2017-09-09T02:00:20.682Z,0
2017-09-09T02:01:21.401Z,0
2017-09-09T02:02:22.122Z,0
2017-09-09T02:03:22.866Z,0
2017-09-09T02:04:23.586Z,0
2017-09-09T02:05:24.308Z,0
2017-09-09T02:06:25.028Z,0
2017-09-09T02:07:25.748Z,0
2017-09-09T02:08:26.474Z,0
2017-09-09T02:09:27.195Z,0
2017-09-09T02:10:27.915Z,0
2017-09-09T02:11:28.637Z,0
2017-09-09T02:12:29.358Z,0
2017-09-09T02:13:30.076Z,0
2017-09-09T02:14:30.821Z,0
2017-09-09T02:15:31.564Z,0
2017-09-09T02:16:32.283Z,0
2017-09-09T02:17:33.005Z,0
2017-09-09T02:18:33.745Z,0
2017-09-09T02:19:34.463Z,0
2017-09-09T02:20:35.186Z,0
2017-09-09T02:21:35.928Z,0
2017-09-09T02:22:36.648Z,0
2017-09-09T02:23:37.368Z,0
2017-09-09T02:24:38.090Z,0
2017-09-09T02:25:38.807Z,0
2017-09-09T02:26:39.553Z,0
2017-09-09T02:27:40.271Z,0
2017-09-09T02:28:41.014Z,0
2017-09-09T02:29:41.731Z,0
2017-09-09T02:30:42.450Z,0
2017-09-09T02:31:43.169Z,0
2017-09-09T02:32:43.884Z,0
2017-09-09T02:33:44.622Z,0
2017-09-09T02:34:45.361Z,0
2017-09-09T02:35:46.102Z,0
2017-09-09T02:36:46.821Z,0
2017-09-09T02:37:47.540Z,0
2017-09-09T02:38:48.258Z,0
2017-09-09T02:39:48.977Z,0
2017-09-09T02:40:49.697Z,0
2017-09-09T02:41:50.442Z,0
2017-09-09T02:42:51.161Z,0
2017-09-09T02:43:51.881Z,0
2017-09-09T02:44:52.598Z,0
2017-09-09T02:45:53.318Z,0
2017-09-09T02:46:54.058Z,0
2017-09-09T02:47:54.778Z,0
2017-09-09T02:48:55.522Z,0
2017-09-09T02:49:56.240Z,0
2017-09-09T02:50:56.962Z,0
2017-09-09T02:51:57.708Z,0
2017-09-09T02:52:58.425Z,0
2017-09-09T02:53:59.143Z,0
2017-09-09T02:54:59.868Z,0
2017-09-09T02:56:00.578Z,0
2017-09-09T02:57:01.298Z,0
2017-09-09T02:58:02.036Z,0
2017-09-09T02:59:02.755Z,0
2017-09-09T03:00:03.478Z,0
2017-09-09T03:01:04.198Z,0
2017-09-09T03:02:04.918Z,0
2017-09-09T03:03:05.634Z,0
2017-09-09T03:04:06.353Z,0
2017-09-09T03:05:07.071Z,0
2017-09-09T03:06:07.809Z,0
2017-09-09T03:07:08.528Z,0
2017-09-09T03:08:09.268Z,0
2017-09-09T03:09:10.009Z,0
2017-09-09T03:10:10.730Z,0
2017-09-09T03:11:11.445Z,0
2017-09-09T03:12:12.185Z,0
2017-09-09T03:13:12.905Z,0
2017-09-09T03:14:13.625Z,0
2017-09-09T03:15:14.363Z,0
2017-09-09T03:16:15.080Z,0
2017-09-09T03:17:15.802Z,0
2017-09-09T03:18:16.540Z,0
2017-09-09T03:19:17.282Z,0
2017-09-09T03:20:17.999Z,0
2017-09-09T03:21:18.722Z,0
2017-09-09T03:22:19.459Z,0
2017-09-09T03:23:20.200Z,0
2017-09-09T03:24:20.919Z,0
2017-09-09T03:25:21.637Z,0
2017-09-09T03:26:22.356Z,0
2017-09-09T03:27:23.076Z,0
2017-09-09T03:28:23.798Z,0
2017-09-09T03:29:24.513Z,0
2017-09-09T03:30:25.233Z,0
2017-09-09T03:31:25.950Z,0
2017-09-09T03:32:26.669Z,0
2017-09-09T03:33:27.386Z,0
2017-09-09T03:34:28.103Z,0
2017-09-09T03:35:28.822Z,0
2017-09-09T03:36:29.562Z,0
2017-09-09T03:37:30.284Z,0
2017-09-09T03:38:31.024Z,0
2017-09-09T03:39:31.742Z,0
2017-09-09T03:40:32.464Z,0
2017-09-09T03:41:33.180Z,0
2017-09-09T03:42:33.900Z,0
2017-09-09T03:43:34.641Z,0
2017-09-09T03:44:35.359Z,0
2017-09-09T03:45:36.079Z,0
2017-09-09T03:46:36.799Z,0
2017-09-09T03:47:37.520Z,0
2017-09-09T03:48:38.261Z,0
2017-09-09T03:49:38.984Z,0
2017-09-09T03:50:39.699Z,0
2017-09-09T03:51:40.417Z,0
2017-09-09T03:52:41.137Z,0
2017-09-09T03:53:41.885Z,0
2017-09-09T03:54:42.601Z,0
2017-09-09T03:55:43.318Z,0
2017-09-09T03:56:44.040Z,0
2017-09-09T03:57:44.759Z,0
2017-09-09T03:58:45.479Z,0
2017-09-09T03:59:46.197Z,0
2017-09-09T04:00:46.917Z,0
2017-09-09T04:01:47.636Z,0
2017-09-09T04:02:48.352Z,0
2017-09-09T04:03:49.070Z,0
2017-09-09T04:04:49.790Z,0
2017-09-09T04:05:50.532Z,0
2017-09-09T04:06:51.254Z,0
2017-09-09T04:07:51.971Z,0
2017-09-09T04:08:52.689Z,0
2017-09-09T04:09:53.407Z,0
2017-09-09T04:10:54.128Z,0
2017-09-09T04:11:54.849Z,0
2017-09-09T04:12:55.592Z,0
2017-09-09T04:13:56.313Z,0
2017-09-09T04:14:57.035Z,0
2017-09-09T04:15:57.758Z,0
2017-09-09T04:16:58.503Z,0
2017-09-09T04:17:59.248Z,0
2017-09-09T04:18:59.965Z,0
2017-09-09T04:20:00.713Z,0
2017-09-09T04:21:01.455Z,0
2017-09-09T04:22:02.197Z,0
2017-09-09T04:23:02.940Z,0
2017-09-09T04:24:03.657Z,0
2017-09-09T04:25:04.377Z,0
2017-09-09T04:26:05.100Z,0
2017-09-09T04:27:05.819Z,0
2017-09-09T04:28:06.541Z,0
2017-09-09T04:29:07.261Z,0
2017-09-09T04:30:07.981Z,0
2017-09-09T04:31:08.725Z,0
2017-09-09T04:32:09.465Z,0
2017-09-09T04:33:10.188Z,0
2017-09-09T04:34:10.905Z,0
2017-09-09T04:35:11.624Z,4
2017-09-09T04:36:12.353Z,4
2017-09-09T04:37:13.137Z,4
2017-09-09T04:38:13.817Z,4
2017-09-09T04:39:14.533Z,4
2017-09-09T04:40:15.273Z,4
2017-09-09T04:41:15.993Z,8
2017-09-09T04:42:16.717Z,8
2017-09-09T04:43:17.459Z,8
2017-09-09T04:44:18.205Z,8
2017-09-09T04:45:18.924Z,12
2017-09-09T04:46:19.646Z,12
2017-09-09T04:47:20.369Z,12
2017-09-09T04:48:21.089Z,16
2017-09-09T04:49:21.814Z,16
2017-09-09T04:50:22.553Z,16
2017-09-09T04:51:23.274Z,20
2017-09-09T04:52:23.997Z,24
2017-09-09T04:53:24.718Z,28
2017-09-09T04:54:25.469Z,28
2017-09-09T04:55:26.207Z,32
2017-09-09T04:56:26.954Z,32
2017-09-09T04:57:27.673Z,40
2017-09-09T04:58:28.395Z,44
2017-09-09T04:59:29.116Z,48
2017-09-09T05:00:29.859Z,56
2017-09-09T05:01:30.603Z,60
2017-09-09T05:02:31.346Z,64
2017-09-09T05:03:32.070Z,68
2017-09-09T05:04:32.790Z,76
2017-09-09T05:05:33.511Z,80
2017-09-09T05:06:34.232Z,80
2017-09-09T05:07:34.959Z,80
2017-09-09T05:08:35.699Z,80
2017-09-09T05:09:36.421Z,84
2017-09-09T05:10:37.146Z,88
2017-09-09T05:11:37.889Z,92
2017-09-09T05:12:38.614Z,100
2017-09-09T05:13:39.337Z,100
2017-09-09T05:14:40.058Z,120
2017-09-09T05:15:40.804Z,136
2017-09-09T05:16:41.529Z,136
2017-09-09T05:17:42.252Z,136
2017-09-09T05:18:42.974Z,128
2017-09-09T05:19:43.695Z,128
2017-09-09T05:20:44.418Z,128
2017-09-09T05:21:45.142Z,136
2017-09-09T05:22:45.864Z,160
2017-09-09T05:23:46.589Z,192
2017-09-09T05:24:47.311Z,216
2017-09-09T05:25:48.034Z,244
2017-09-09T05:26:48.757Z,272
2017-09-09T05:27:49.482Z,312
2017-09-09T05:28:50.206Z,368
2017-09-09T05:29:50.929Z,416
2017-09-09T05:30:51.675Z,432
2017-09-09T05:31:52.401Z,416
2017-09-09T05:32:53.126Z,376
2017-09-09T05:33:53.849Z,340
2017-09-09T05:34:54.576Z,332
2017-09-09T05:35:55.299Z,352
2017-09-09T05:36:56.019Z,388
2017-09-09T05:37:56.749Z,440
2017-09-09T05:38:57.476Z,480
2017-09-09T05:39:58.201Z,500
2017-09-09T05:40:58.927Z,504
2017-09-09T05:41:59.653Z,528
2017-09-09T05:43:00.378Z,552
2017-09-09T05:44:01.101Z,600
2017-09-09T05:45:01.828Z,636
2017-09-09T05:46:02.548Z,676
2017-09-09T05:47:03.274Z,716
2017-09-09T05:48:04.024Z,776
2017-09-09T05:49:04.770Z,808
2017-09-09T05:50:05.516Z,876
2017-09-09T05:51:06.241Z,912
2017-09-09T05:52:06.967Z,876
2017-09-09T05:53:07.690Z,852
2017-09-09T05:54:08.416Z,828
2017-09-09T05:55:09.142Z,828
2017-09-09T05:56:09.863Z,860
2017-09-09T05:57:10.587Z,924
2017-09-09T05:58:11.321Z,1008
2017-09-09T05:59:12.039Z,1080
2017-09-09T06:00:12.786Z,1160
2017-09-09T06:01:13.512Z,1180
2017-09-09T06:02:14.263Z,1148
2017-09-09T06:03:14.988Z,1124
2017-09-09T06:04:15.739Z,1136
2017-09-09T06:05:16.486Z,1116
2017-09-09T06:06:17.233Z,1124
2017-09-09T06:07:17.960Z,1180
2017-09-09T06:08:18.714Z,1268
2017-09-09T06:09:19.431Z,1240
2017-09-09T06:10:20.159Z,1172
2017-09-09T06:11:20.907Z,1104
2017-09-09T06:12:21.636Z,1032
2017-09-09T06:13:22.354Z,940
2017-09-09T06:14:23.081Z,828
2017-09-09T06:15:23.803Z,716
2017-09-09T06:16:24.527Z,672
2017-09-09T06:17:25.252Z,680
2017-09-09T06:18:25.977Z,704
2017-09-09T06:19:26.702Z,788
2017-09-09T06:20:27.425Z,836
2017-09-09T06:21:28.148Z,780
2017-09-09T06:22:28.876Z,844
2017-09-09T06:23:29.599Z,956
2017-09-09T06:24:30.320Z,944
2017-09-09T06:25:31.046Z,968
2017-09-09T06:26:31.773Z,1172
2017-09-09T06:27:32.496Z,1372
2017-09-09T06:28:33.222Z,1420
2017-09-09T06:29:33.948Z,1424
2017-09-09T06:30:34.673Z,1444
2017-09-09T06:31:35.398Z,1416
2017-09-09T06:32:36.145Z,1444
2017-09-09T06:33:36.872Z,1504
2017-09-09T06:34:37.618Z,1476
2017-09-09T06:35:38.344Z,1324
2017-09-09T06:36:39.069Z,1064
2017-09-09T06:37:39.803Z,980
2017-09-09T06:38:40.518Z,1124
2017-09-09T06:39:41.246Z,1344
2017-09-09T06:40:41.971Z,1420
2017-09-09T06:41:42.695Z,1460
2017-09-09T06:42:43.419Z,1524
2017-09-09T06:43:44.168Z,1492
2017-09-09T06:44:44.898Z,1464
2017-09-09T06:45:45.619Z,1436
2017-09-09T06:46:46.344Z,1296
2017-09-09T06:47:47.069Z,1120
2017-09-09T06:48:47.795Z,1064
2017-09-09T06:49:48.519Z,1088
2017-09-09T06:50:49.249Z,1056
2017-09-09T06:51:49.972Z,1044
2017-09-09T06:52:50.698Z,1060
2017-09-09T06:53:51.425Z,1048
2017-09-09T06:54:52.150Z,1024
2017-09-09T06:55:52.877Z,940
2017-09-09T06:56:53.597Z,868
2017-09-09T06:57:54.321Z,800
2017-09-09T06:58:55.047Z,792
2017-09-09T06:59:55.796Z,800
2017-09-09T07:00:56.517Z,760
2017-09-09T07:01:57.239Z,888
2017-09-09T07:02:57.963Z,952
2017-09-09T07:03:58.689Z,980
2017-09-09T07:04:59.413Z,1164
2017-09-09T07:06:00.163Z,1372
2017-09-09T07:07:00.888Z,1784
2017-09-09T07:08:01.638Z,1968
2017-09-09T07:09:02.361Z,2068
2017-09-09T07:10:03.087Z,2360
2017-09-09T07:11:03.809Z,2424
2017-09-09T07:12:04.535Z,2416
2017-09-09T07:13:05.260Z,2360
2017-09-09T07:14:05.984Z,2352
2017-09-09T07:15:06.710Z,2408
2017-09-09T07:16:07.431Z,2460
2017-09-09T07:17:08.154Z,2504
2017-09-09T07:18:08.915Z,2488
2017-09-09T07:19:09.607Z,2472
2017-09-09T07:20:10.332Z,2432
2017-09-09T07:21:11.058Z,2420
2017-09-09T07:22:11.803Z,2464
2017-09-09T07:23:12.549Z,2452
2017-09-09T07:24:13.276Z,2436
2017-09-09T07:25:14.001Z,2540
2017-09-09T07:26:14.727Z,2624
2017-09-09T07:27:15.451Z,2724
2017-09-09T07:28:16.174Z,2872
2017-09-09T07:29:16.901Z,3016
2017-09-09T07:30:17.628Z,3120
2017-09-09T07:31:18.371Z,3108
2017-09-09T07:32:19.104Z,2992
2017-09-09T07:33:19.825Z,2900
2017-09-09T07:34:20.547Z,2872
2017-09-09T07:35:21.274Z,2892
2017-09-09T07:36:21.999Z,3024
2017-09-09T07:37:22.721Z,3336
2017-09-09T07:38:23.469Z,3716
2017-09-09T07:39:24.221Z,4136
2017-09-09T07:40:24.952Z,4576
2017-09-09T07:41:25.699Z,4792
2017-09-09T07:42:26.446Z,4904
2017-09-09T07:43:27.171Z,4924
2017-09-09T07:44:27.897Z,5032
2017-09-09T07:45:28.627Z,5232
2017-09-09T07:46:29.374Z,5476
2017-09-09T07:47:30.104Z,5468
2017-09-09T07:48:30.826Z,5408
2017-09-09T07:49:31.553Z,5220
2017-09-09T07:50:32.280Z,5212
2017-09-09T07:51:33.008Z,5252
2017-09-09T07:52:33.739Z,5192
2017-09-09T07:53:34.463Z,5096
2017-09-09T07:54:35.190Z,5448
2017-09-09T07:55:35.919Z,6120
2017-09-09T07:56:36.646Z,6916
2017-09-09T07:57:37.395Z,7496
2017-09-09T07:58:38.121Z,7136
2017-09-09T07:59:38.850Z,7532
2017-09-09T08:00:39.606Z,7628
2017-09-09T08:01:40.350Z,7616
2017-09-09T08:02:41.075Z,6672
2017-09-09T08:03:41.803Z,6112
2017-09-09T08:04:42.534Z,6128
2017-09-09T08:05:43.262Z,5172
2017-09-09T08:06:44.014Z,5532
2017-09-09T08:07:44.741Z,5348
2017-09-09T08:08:45.475Z,5040
2017-09-09T08:09:46.226Z,4836
2017-09-09T08:10:46.952Z,5696
2017-09-09T08:11:47.704Z,5044
2017-09-09T08:12:48.433Z,5440
2017-09-09T08:13:49.182Z,4584
2017-09-09T08:14:49.972Z,5488
2017-09-09T08:15:50.662Z,5048
2017-09-09T08:16:51.390Z,4196
2017-09-09T08:17:52.117Z,3900
2017-09-09T08:18:52.864Z,4116
2017-09-09T08:19:53.593Z,3924
2017-09-09T08:20:54.321Z,4256
2017-09-09T08:21:55.050Z,4372
2017-09-09T08:22:55.776Z,4424
2017-09-09T08:23:56.503Z,5504
2017-09-09T08:24:57.232Z,5980
2017-09-09T08:25:57.957Z,7564
2017-09-09T08:26:58.688Z,9456
2017-09-09T08:27:59.437Z,12184
2017-09-09T08:29:00.168Z,13968
2017-09-09T08:30:00.899Z,19584
2017-09-09T08:31:01.629Z,16480
2017-09-09T08:32:02.361Z,18144
2017-09-09T08:33:03.113Z,18272
2017-09-09T08:34:03.867Z,17024
2017-09-09T08:35:04.621Z,15616
2017-09-09T08:36:05.351Z,15936
2017-09-09T08:37:06.107Z,16928
2017-09-09T08:38:06.835Z,19232
2017-09-09T08:39:07.566Z,19168
2017-09-09T08:40:08.319Z,14624
2017-09-09T08:41:09.052Z,11052
2017-09-09T08:42:09.806Z,8348
2017-09-09T08:43:10.559Z,8300
2017-09-09T08:44:11.286Z,6752
2017-09-09T08:45:12.018Z,6916
2017-09-09T08:46:12.745Z,6832
2017-09-09T08:47:13.471Z,8556
2017-09-09T08:48:14.204Z,8900
2017-09-09T08:49:14.931Z,8192
2017-09-09T08:50:15.663Z,8088
2017-09-09T08:51:16.392Z,9728
2017-09-09T08:52:17.142Z,7792
2017-09-09T08:53:17.871Z,7272
2017-09-09T08:54:18.622Z,4632
2017-09-09T08:55:19.349Z,3908
2017-09-09T08:56:20.077Z,4632
2017-09-09T08:57:20.806Z,6628
2017-09-09T08:58:21.538Z,8144
2017-09-09T08:59:22.265Z,8816
2017-09-09T09:00:23.017Z,9104
2017-09-09T09:01:23.767Z,9880
2017-09-09T09:02:24.495Z,12140
2017-09-09T09:03:25.226Z,10044
2017-09-09T09:04:25.952Z,7432
2017-09-09T09:05:26.681Z,5088
2017-09-09T09:06:27.409Z,4072
2017-09-09T09:07:28.135Z,4276
2017-09-09T09:08:28.861Z,6236
2017-09-09T09:09:29.598Z,9628
2017-09-09T09:10:30.315Z,12552
2017-09-09T09:11:31.044Z,14824
2017-09-09T09:12:31.773Z,14152
2017-09-09T09:13:32.523Z,19328
2017-09-09T09:14:33.249Z,43936
2017-09-09T09:15:33.978Z,25792
2017-09-09T09:16:34.708Z,34592
2017-09-09T09:17:35.457Z,31552
2017-09-09T09:18:36.185Z,35232
2017-09-09T09:19:36.938Z,37248
2017-09-09T09:20:37.670Z,24000
2017-09-09T09:21:38.402Z,29088
2017-09-09T09:22:39.157Z,32800
2017-09-09T09:23:39.892Z,25760
2017-09-09T09:24:40.620Z,25152
2017-09-09T09:25:41.351Z,35712
2017-09-09T09:26:42.087Z,20352
2017-09-09T09:27:42.816Z,23456
2017-09-09T09:28:43.550Z,19872
2017-09-09T09:29:44.283Z,22944
2017-09-09T09:30:45.015Z,18496
2017-09-09T09:31:45.746Z,10292
2017-09-09T09:32:46.477Z,14048
2017-09-09T09:33:47.211Z,15444
2017-09-09T09:34:47.943Z,35168
2017-09-09T09:35:48.673Z,16220
2017-09-09T09:36:49.401Z,15240
2017-09-09T09:37:50.133Z,34528
2017-09-09T09:38:50.866Z,20896
2017-09-09T09:39:51.597Z,23072
2017-09-09T09:40:52.336Z,12336
2017-09-09T09:41:53.085Z,24256
2017-09-09T09:42:53.819Z,46144
2017-09-09T09:43:54.557Z,22816
2017-09-09T09:44:55.287Z,12456
2017-09-09T09:45:56.043Z,11584
2017-09-09T09:46:56.774Z,7456
2017-09-09T09:47:57.505Z,7084
2017-09-09T09:48:58.236Z,6964
2017-09-09T09:49:58.964Z,5784
2017-09-09T09:50:59.696Z,5292
2017-09-09T09:52:00.424Z,7068
2017-09-09T09:53:01.152Z,6836
2017-09-09T09:54:01.880Z,5324
2017-09-09T09:55:02.610Z,4180
2017-09-09T09:56:03.338Z,3916
2017-09-09T09:57:04.068Z,4676
2017-09-09T09:58:04.796Z,3220
2017-09-09T09:59:05.526Z,2940
2017-09-09T10:00:06.253Z,4124
2017-09-09T10:01:06.981Z,3964
2017-09-09T10:02:07.708Z,4584
2017-09-09T10:03:08.434Z,4896
2017-09-09T10:04:09.164Z,5084
2017-09-09T10:05:09.890Z,3496
2017-09-09T10:06:10.641Z,3364
2017-09-09T10:07:11.368Z,1704
2017-09-09T10:08:12.092Z,2788
2017-09-09T10:09:12.817Z,3728
2017-09-09T10:10:13.544Z,6216
2017-09-09T10:11:14.294Z,5760
2017-09-09T10:12:15.025Z,7704
2017-09-09T10:13:15.747Z,8156
2017-09-09T10:14:16.498Z,8552
2017-09-09T10:15:17.226Z,9040
2017-09-09T10:16:17.949Z,9740
2017-09-09T10:17:18.678Z,10512
2017-09-09T10:18:19.405Z,22784
2017-09-09T10:19:20.133Z,13496
2017-09-09T10:20:20.863Z,76160
2017-09-09T10:21:21.617Z,71040
2017-09-09T10:22:22.349Z,72800
2017-09-09T10:23:23.083Z,74560
2017-09-09T10:24:23.819Z,74752
2017-09-09T10:25:24.556Z,54528
2017-09-09T10:26:25.295Z,21888
2017-09-09T10:27:26.025Z,21312
2017-09-09T10:28:26.783Z,17568
2017-09-09T10:29:27.520Z,12628
2017-09-09T10:30:28.253Z,9948
2017-09-09T10:31:29.004Z,7872
2017-09-09T10:32:29.748Z,5980
2017-09-09T10:33:30.467Z,4260
2017-09-09T10:34:31.219Z,3084
2017-09-09T10:35:31.951Z,2356
2017-09-09T10:36:32.703Z,2152
2017-09-09T10:37:33.455Z,2372
2017-09-09T10:38:34.183Z,3040
2017-09-09T10:39:34.935Z,3476
2017-09-09T10:40:35.665Z,3972
2017-09-09T10:41:36.398Z,5024
2017-09-09T10:42:37.122Z,6576
2017-09-09T10:43:37.851Z,7792
2017-09-09T10:44:38.581Z,11168
2017-09-09T10:45:39.312Z,19264
2017-09-09T10:46:40.040Z,96864
2017-09-09T10:47:40.775Z,94784
2017-09-09T10:48:41.529Z,21856
2017-09-09T10:49:42.280Z,21856
2017-09-09T10:50:43.014Z,21440
2017-09-09T10:51:43.746Z,23488
2017-09-09T10:52:44.481Z,24576
2017-09-09T10:53:45.235Z,22720
2017-09-09T10:54:45.987Z,26112
2017-09-09T10:55:46.720Z,25472
2017-09-09T10:56:47.455Z,19520
2017-09-09T10:57:48.184Z,32032
2017-09-09T10:58:48.921Z,45696
2017-09-09T10:59:49.655Z,68768
2017-09-09T11:00:50.390Z,17088
2017-09-09T11:01:51.122Z,83232
2017-09-09T11:02:51.856Z,82944
2017-09-09T11:03:52.594Z,79104
2017-09-09T11:04:53.329Z,80096
2017-09-09T11:05:54.065Z,82080
2017-09-09T11:06:54.803Z,82976
2017-09-09T11:07:55.542Z,86400
2017-09-09T11:08:56.283Z,84864
2017-09-09T11:09:57.021Z,81120
2017-09-09T11:10:57.760Z,78464
2017-09-09T11:11:58.502Z,78656
2017-09-09T11:12:59.247Z,75840
2017-09-09T11:13:59.988Z,76320
2017-09-09T11:15:00.757Z,81472
2017-09-09T11:16:01.500Z,11496
2017-09-09T11:17:02.245Z,84320
2017-09-09T11:18:02.987Z,33600
2017-09-09T11:19:03.755Z,84640
2017-09-09T11:20:04.497Z,15720
2017-09-09T11:22:20.474Z,48736
2017-09-09T11:23:21.244Z,86144
2017-09-09T11:24:22.001Z,81664
2017-09-09T11:25:22.744Z,80608
2017-09-09T11:26:23.489Z,82720
2017-09-09T11:27:24.234Z,82112
2017-09-09T11:28:24.979Z,56544
2017-09-09T11:29:25.726Z,84832
2017-09-09T11:30:26.469Z,83680
2017-09-09T11:31:27.210Z,14064
2017-09-09T11:32:27.951Z,11168
2017-09-09T11:33:28.696Z,10116
2017-09-09T11:34:29.438Z,8732
2017-09-09T11:35:30.177Z,8312
2017-09-09T11:36:30.918Z,11104
2017-09-09T11:37:31.681Z,85536
2017-09-09T11:38:32.421Z,82624
2017-09-09T11:39:33.166Z,80928
2017-09-09T11:40:33.937Z,74784
2017-09-09T11:41:34.699Z,76416
2017-09-09T11:42:35.464Z,79616
2017-09-09T11:43:36.212Z,74336
2017-09-09T11:44:36.949Z,43136
2017-09-09T11:45:37.689Z,76512
2017-09-09T11:46:38.431Z,75584
2017-09-09T11:47:39.171Z,74208
2017-09-09T11:48:39.912Z,23584
2017-09-09T11:49:40.654Z,10848
2017-09-09T11:50:41.395Z,84800
2017-09-09T11:51:42.135Z,86144
2017-09-09T11:52:42.895Z,81760
2017-09-09T11:53:43.661Z,77792
2017-09-09T11:54:44.421Z,79904
2017-09-09T11:55:45.163Z,24800
2017-09-09T11:56:45.905Z,83744
2017-09-09T11:57:46.643Z,81600
2017-09-09T11:58:47.407Z,81440
2017-09-09T11:59:48.169Z,53792
2017-09-09T12:00:48.913Z,79968
2017-09-09T12:01:49.652Z,10192
2017-09-09T12:02:50.416Z,55712
2017-09-09T12:03:51.159Z,76576
2017-09-09T12:04:51.899Z,80704
2017-09-09T12:05:52.662Z,79008
2017-09-09T12:06:53.404Z,81440
2017-09-09T12:07:54.146Z,82432
2017-09-09T12:08:54.887Z,28864
2017-09-09T12:09:55.629Z,80160
2017-09-09T12:10:56.393Z,80256
2017-09-09T12:11:57.137Z,79776
2017-09-09T12:12:57.877Z,84384
2017-09-09T12:13:58.619Z,73504
2017-09-09T12:14:59.382Z,67232
2017-09-09T12:16:00.128Z,71008
2017-09-09T12:17:00.869Z,73920
2017-09-09T12:18:01.612Z,38432
2017-09-09T12:19:02.357Z,68896
2017-09-09T12:20:03.099Z,78720
2017-09-09T12:21:03.840Z,47104
2017-09-09T12:22:04.582Z,84928
2017-09-09T12:23:05.325Z,78528
2017-09-09T12:24:06.065Z,58400
2017-09-09T12:25:06.811Z,82848
2017-09-09T12:26:07.552Z,23136
2017-09-09T12:27:08.295Z,21728
2017-09-09T12:28:09.035Z,19712
2017-09-09T12:29:09.779Z,64320
2017-09-09T12:30:10.524Z,39552
2017-09-09T12:31:11.268Z,50944
2017-09-09T12:32:12.002Z,22304
2017-09-09T12:33:12.741Z,25888
2017-09-09T12:34:13.503Z,27648
2017-09-09T12:35:14.237Z,28352
2017-09-09T12:36:14.979Z,23808
2017-09-09T12:37:15.717Z,25952
2017-09-09T12:38:16.479Z,30272
2017-09-09T12:39:17.226Z,73504
2017-09-09T12:40:17.974Z,34880
2017-09-09T12:41:18.710Z,40608
2017-09-09T12:42:19.475Z,93248
2017-09-09T12:43:20.217Z,46784
2017-09-09T12:44:20.958Z,89312
2017-09-09T12:45:21.697Z,50912
2017-09-09T12:46:22.444Z,84160
2017-09-09T12:47:23.187Z,87648
2017-09-09T12:48:23.929Z,52928
2017-09-09T12:49:24.667Z,82912
2017-09-09T12:50:25.407Z,79776
2017-09-09T12:51:26.148Z,79680
2017-09-09T12:52:26.889Z,67616
2017-09-09T12:53:27.650Z,19264
2017-09-09T12:54:28.397Z,13392
2017-09-09T12:55:29.150Z,13772
2017-09-09T12:56:29.893Z,16448
2017-09-09T12:57:30.630Z,17792
2017-09-09T12:58:31.371Z,18880
2017-09-09T12:59:32.110Z,32512
2017-09-09T13:00:32.851Z,21152
2017-09-09T13:01:33.590Z,27776
2017-09-09T13:02:34.328Z,22688
2017-09-09T13:03:35.068Z,18272
2017-09-09T13:04:35.807Z,17216
2017-09-09T13:05:36.542Z,15460
2017-09-09T13:06:37.281Z,15484
2017-09-09T13:07:38.016Z,14268
2017-09-09T13:08:38.775Z,16768
2017-09-09T13:09:39.509Z,23072
2017-09-09T13:10:40.244Z,22112
2017-09-09T13:11:40.979Z,20768
2017-09-09T13:12:41.710Z,17728
2017-09-09T13:13:42.444Z,13748
2017-09-09T13:14:43.178Z,11464
2017-09-09T13:15:43.909Z,10704
2017-09-09T13:16:44.646Z,10780
2017-09-09T13:17:45.380Z,11364
2017-09-09T13:18:46.137Z,11896
2017-09-09T13:19:46.870Z,11572
2017-09-09T13:20:47.603Z,10896
2017-09-09T13:21:48.335Z,10632
2017-09-09T13:22:49.067Z,10400
2017-09-09T13:23:49.798Z,9880
2017-09-09T13:24:50.529Z,9356
2017-09-09T13:25:51.262Z,8648
2017-09-09T13:26:51.990Z,8180
2017-09-09T13:27:52.722Z,8020
2017-09-09T13:28:53.480Z,8172
2017-09-09T13:29:54.180Z,8608
2017-09-09T13:30:54.911Z,8896
2017-09-09T13:31:55.640Z,12200
2017-09-09T13:32:56.369Z,18080
2017-09-09T13:33:57.100Z,14572
2017-09-09T13:34:57.831Z,11936
2017-09-09T13:35:58.584Z,10316
2017-09-09T13:36:59.312Z,8052
2017-09-09T13:38:00.064Z,5396
2017-09-09T13:39:00.795Z,4412
2017-09-09T13:40:01.546Z,3252
2017-09-09T13:41:02.274Z,2512
2017-09-09T13:42:03.023Z,1924
2017-09-09T13:43:03.752Z,1636
2017-09-09T13:44:04.481Z,1540
2017-09-09T13:45:05.208Z,1364
2017-09-09T13:46:05.937Z,1264
2017-09-09T13:47:06.663Z,1224
2017-09-09T13:48:07.392Z,1212
2017-09-09T13:49:08.118Z,1316
2017-09-09T13:50:08.868Z,1480
2017-09-09T13:51:09.596Z,1760
2017-09-09T13:52:10.319Z,2172
2017-09-09T13:53:11.047Z,2384
2017-09-09T13:54:11.773Z,2356
2017-09-09T13:55:12.501Z,2228
2017-09-09T13:56:13.226Z,2028